sensor_id;sensor_type;location;lat;lon;timestamp;temperature;humidity
12872;DHT22;6504;53.766;9.626;2022-08-19T00:02:03;21.00;99.90
12872;DHT22;6504;53.766;9.626;2022-08-19T00:04:33;21.00;99.90
12872;DHT22;6504;53.766;9.626;2022-08-19T00:07:04;21.00;99.90
12872;DHT22;6504;53.766;9.626;2022-08-19T00:09:34;21.00;99.90
12872;DHT22;6504;53.766;9.626;2022-08-19T00:12:04;21.00;99.90
12872;DHT22;6504;53.766;9.626;2022-08-19T00:14:34;21.00;99.90
12872;DHT22;6504;53.766;9.626;2022-08-19T00:17:03;21.00;99.90
12872;DHT22;6504;53.766;9.626;2022-08-19T00:19:31;20.90;99.90
12872;DHT22;6504;53.766;9.626;2022-08-19T00:22:02;20.90;99.90
12872;DHT22;6504;53.766;9.626;2022-08-19T00:24:38;21.00;99.90
12872;DHT22;6504;53.766;9.626;2022-08-19T00:27:16;21.00;99.90
12872;DHT22;6504;53.766;9.626;2022-08-19T00:29:55;20.90;99.90
12872;DHT22;6504;53.766;9.626;2022-08-19T00:32:23;20.90;99.90
12872;DHT22;6504;53.766;9.626;2022-08-19T00:34:56;20.90;99.90
12872;DHT22;6504;53.766;9.626;2022-08-19T00:37:25;20.80;99.90
12872;DHT22;6504;53.766;9.626;2022-08-19T00:39:57;20.80;99.90
12872;DHT22;6504;53.766;9.626;2022-08-19T00:42:26;20.80;99.90
12872;DHT22;6504;53.766;9.626;2022-08-19T00:44:59;20.80;99.90
12872;DHT22;6504;53.766;9.626;2022-08-19T00:47:27;20.80;99.90
12872;DHT22;6504;53.766;9.626;2022-08-19T00:49:57;20.80;99.90
12872;DHT22;6504;53.766;9.626;2022-08-19T00:52:28;20.70;99.90
12872;DHT22;6504;53.766;9.626;2022-08-19T00:54:59;20.70;99.90
12872;DHT22;6504;53.766;9.626;2022-08-19T00:57:32;20.70;99.90
12872;DHT22;6504;53.766;9.626;2022-08-19T01:00:08;20.80;99.90
12872;DHT22;6504;53.766;9.626;2022-08-19T01:02:38;20.80;99.90
12872;DHT22;6504;53.766;9.626;2022-08-19T01:05:14;20.80;99.90
12872;DHT22;6504;53.766;9.626;2022-08-19T01:07:42;20.80;99.90
12872;DHT22;6504;53.766;9.626;2022-08-19T01:10:16;20.80;99.90
12872;DHT22;6504;53.766;9.626;2022-08-19T01:12:45;20.80;99.90
12872;DHT22;6504;53.766;9.626;2022-08-19T01:15:21;20.80;99.90
12872;DHT22;6504;53.766;9.626;2022-08-19T01:17:50;20.70;99.90
12872;DHT22;6504;53.766;9.626;2022-08-19T01:20:23;20.70;99.90
12872;DHT22;6504;53.766;9.626;2022-08-19T01:22:55;20.70;99.90
12872;DHT22;6504;53.766;9.626;2022-08-19T01:25:29;20.70;99.90
12872;DHT22;6504;53.766;9.626;2022-08-19T01:27:59;20.60;99.90
12872;DHT22;6504;53.766;9.626;2022-08-19T01:30:37;20.60;99.90
12872;DHT22;6504;53.766;9.626;2022-08-19T01:33:14;20.60;99.90
12872;DHT22;6504;53.766;9.626;2022-08-19T01:35:42;20.50;99.90
12872;DHT22;6504;53.766;9.626;2022-08-19T01:38:21;20.50;99.90
12872;DHT22;6504;53.766;9.626;2022-08-19T01:40:50;20.50;99.90
12872;DHT22;6504;53.766;9.626;2022-08-19T01:43:19;20.50;99.90
12872;DHT22;6504;53.766;9.626;2022-08-19T01:45:47;20.50;99.90
12872;DHT22;6504;53.766;9.626;2022-08-19T01:48:15;20.50;99.90
12872;DHT22;6504;53.766;9.626;2022-08-19T01:50:43;20.50;99.90
12872;DHT22;6504;53.766;9.626;2022-08-19T01:53:13;20.40;99.90
12872;DHT22;6504;53.766;9.626;2022-08-19T01:55:43;20.40;99.90
12872;DHT22;6504;53.766;9.626;2022-08-19T01:58:16;20.30;99.90
12872;DHT22;6504;53.766;9.626;2022-08-19T02:00:47;20.30;99.90
12872;DHT22;6504;53.766;9.626;2022-08-19T02:03:18;20.30;99.90
12872;DHT22;6504;53.766;9.626;2022-08-19T02:05:46;20.30;99.90
12872;DHT22;6504;53.766;9.626;2022-08-19T02:08:19;20.30;99.90
12872;DHT22;6504;53.766;9.626;2022-08-19T02:10:47;20.20;99.90
12872;DHT22;6504;53.766;9.626;2022-08-19T02:13:20;20.20;99.90
12872;DHT22;6504;53.766;9.626;2022-08-19T02:15:52;20.20;99.90
12872;DHT22;6504;53.766;9.626;2022-08-19T02:18:20;20.20;99.90
12872;DHT22;6504;53.766;9.626;2022-08-19T02:20:53;20.20;99.90
12872;DHT22;6504;53.766;9.626;2022-08-19T02:23:23;20.20;99.90
12872;DHT22;6504;53.766;9.626;2022-08-19T02:25:51;20.20;99.90
12872;DHT22;6504;53.766;9.626;2022-08-19T02:28:20;20.20;99.90
12872;DHT22;6504;53.766;9.626;2022-08-19T02:30:50;20.20;99.90
12872;DHT22;6504;53.766;9.626;2022-08-19T02:33:18;20.20;99.90
12872;DHT22;6504;53.766;9.626;2022-08-19T02:35:46;20.20;99.90
12872;DHT22;6504;53.766;9.626;2022-08-19T02:38:15;20.30;99.90
12872;DHT22;6504;53.766;9.626;2022-08-19T02:40:58;20.30;99.90
12872;DHT22;6504;53.766;9.626;2022-08-19T02:43:28;20.30;99.90
12872;DHT22;6504;53.766;9.626;2022-08-19T02:46:00;20.20;99.90
12872;DHT22;6504;53.766;9.626;2022-08-19T02:48:28;20.20;99.90
12872;DHT22;6504;53.766;9.626;2022-08-19T02:50:59;20.20;99.90
12872;DHT22;6504;53.766;9.626;2022-08-19T02:53:28;20.20;99.90
12872;DHT22;6504;53.766;9.626;2022-08-19T02:56:00;20.20;99.90
12872;DHT22;6504;53.766;9.626;2022-08-19T02:58:29;20.20;99.90
12872;DHT22;6504;53.766;9.626;2022-08-19T03:00:57;20.20;99.90
12872;DHT22;6504;53.766;9.626;2022-08-19T03:03:25;20.20;99.90
12872;DHT22;6504;53.766;9.626;2022-08-19T03:06:06;20.20;99.90
12872;DHT22;6504;53.766;9.626;2022-08-19T03:08:35;20.30;99.90
12872;DHT22;6504;53.766;9.626;2022-08-19T03:11:05;20.30;99.90
12872;DHT22;6504;53.766;9.626;2022-08-19T03:13:33;20.30;99.90
12872;DHT22;6504;53.766;9.626;2022-08-19T03:16:05;20.30;99.90
12872;DHT22;6504;53.766;9.626;2022-08-19T03:18:33;20.30;99.90
12872;DHT22;6504;53.766;9.626;2022-08-19T03:21:02;20.20;99.90
12872;DHT22;6504;53.766;9.626;2022-08-19T03:23:30;20.20;99.90
12872;DHT22;6504;53.766;9.626;2022-08-19T03:25:58;20.10;99.90
12872;DHT22;6504;53.766;9.626;2022-08-19T03:28:44;20.10;99.90
12872;DHT22;6504;53.766;9.626;2022-08-19T03:31:24;20.10;99.90
12872;DHT22;6504;53.766;9.626;2022-08-19T03:34:15;20.20;99.90
12872;DHT22;6504;53.766;9.626;2022-08-19T03:36:47;20.20;99.90
12872;DHT22;6504;53.766;9.626;2022-08-19T03:39:16;20.20;99.90
12872;DHT22;6504;53.766;9.626;2022-08-19T03:41:45;20.20;99.90
12872;DHT22;6504;53.766;9.626;2022-08-19T03:44:17;20.20;99.90
12872;DHT22;6504;53.766;9.626;2022-08-19T03:46:51;20.20;99.90
12872;DHT22;6504;53.766;9.626;2022-08-19T03:49:20;20.10;99.90
12872;DHT22;6504;53.766;9.626;2022-08-19T03:51:55;20.20;99.90
12872;DHT22;6504;53.766;9.626;2022-08-19T03:54:24;20.20;99.90
12872;DHT22;6504;53.766;9.626;2022-08-19T03:56:57;20.20;99.90
12872;DHT22;6504;53.766;9.626;2022-08-19T03:59:30;20.20;99.90
12872;DHT22;6504;53.766;9.626;2022-08-19T04:02:01;20.20;99.90
12872;DHT22;6504;53.766;9.626;2022-08-19T04:04:30;20.20;99.90
12872;DHT22;6504;53.766;9.626;2022-08-19T04:07:00;20.20;99.90
12872;DHT22;6504;53.766;9.626;2022-08-19T04:09:29;20.30;99.90
12872;DHT22;6504;53.766;9.626;2022-08-19T04:11:57;20.30;99.90
12872;DHT22;6504;53.766;9.626;2022-08-19T04:14:29;20.30;99.90
12872;DHT22;6504;53.766;9.626;2022-08-19T04:17:02;20.40;99.90
12872;DHT22;6504;53.766;9.626;2022-08-19T04:19:49;20.30;99.90
12872;DHT22;6504;53.766;9.626;2022-08-19T04:22:35;20.40;99.90
12872;DHT22;6504;53.766;9.626;2022-08-19T04:25:21;20.40;99.90
12872;DHT22;6504;53.766;9.626;2022-08-19T04:28:07;20.40;99.90
12872;DHT22;6504;53.766;9.626;2022-08-19T04:30:55;20.40;99.90
12872;DHT22;6504;53.766;9.626;2022-08-19T04:33:42;20.40;99.90
12872;DHT22;6504;53.766;9.626;2022-08-19T04:36:29;20.40;99.90
12872;DHT22;6504;53.766;9.626;2022-08-19T04:39:18;20.40;99.90
12872;DHT22;6504;53.766;9.626;2022-08-19T04:42:07;20.30;99.90
12872;DHT22;6504;53.766;9.626;2022-08-19T04:45:12;20.30;99.90
12872;DHT22;6504;53.766;9.626;2022-08-19T04:47:59;20.30;99.90
12872;DHT22;6504;53.766;9.626;2022-08-19T04:50:50;20.30;99.90
12872;DHT22;6504;53.766;9.626;2022-08-19T04:53:42;20.30;99.90
12872;DHT22;6504;53.766;9.626;2022-08-19T04:56:28;20.30;99.90
12872;DHT22;6504;53.766;9.626;2022-08-19T04:59:14;20.30;99.90
12872;DHT22;6504;53.766;9.626;2022-08-19T05:01:59;20.30;99.90
12872;DHT22;6504;53.766;9.626;2022-08-19T05:04:49;20.30;99.90
12872;DHT22;6504;53.766;9.626;2022-08-19T05:07:35;20.30;99.90
12872;DHT22;6504;53.766;9.626;2022-08-19T05:10:21;20.40;99.90
12872;DHT22;6504;53.766;9.626;2022-08-19T05:13:06;20.40;99.90
12872;DHT22;6504;53.766;9.626;2022-08-19T05:15:54;20.40;99.90
12872;DHT22;6504;53.766;9.626;2022-08-19T05:18:40;20.40;99.90
12872;DHT22;6504;53.766;9.626;2022-08-19T05:21:46;20.40;99.90
12872;DHT22;6504;53.766;9.626;2022-08-19T05:24:49;20.40;99.90
12872;DHT22;6504;53.766;9.626;2022-08-19T05:27:35;20.30;99.90
12872;DHT22;6504;53.766;9.626;2022-08-19T05:30:21;20.40;99.90
12872;DHT22;6504;53.766;9.626;2022-08-19T05:33:10;20.40;99.90
12872;DHT22;6504;53.766;9.626;2022-08-19T05:35:56;20.30;99.90
12872;DHT22;6504;53.766;9.626;2022-08-19T05:38:44;20.30;99.90
12872;DHT22;6504;53.766;9.626;2022-08-19T05:41:29;20.30;99.90
12872;DHT22;6504;53.766;9.626;2022-08-19T05:44:15;20.30;99.90
12872;DHT22;6504;53.766;9.626;2022-08-19T05:47:03;20.30;99.90
12872;DHT22;6504;53.766;9.626;2022-08-19T05:49:55;20.30;99.90
12872;DHT22;6504;53.766;9.626;2022-08-19T05:52:40;20.40;99.90
12872;DHT22;6504;53.766;9.626;2022-08-19T05:55:27;20.40;99.90
12872;DHT22;6504;53.766;9.626;2022-08-19T05:58:13;20.40;99.90
12872;DHT22;6504;53.766;9.626;2022-08-19T06:00:58;20.40;99.90
12872;DHT22;6504;53.766;9.626;2022-08-19T06:03:49;20.40;99.90
12872;DHT22;6504;53.766;9.626;2022-08-19T06:06:35;20.40;99.90
12872;DHT22;6504;53.766;9.626;2022-08-19T06:09:22;20.40;99.90
12872;DHT22;6504;53.766;9.626;2022-08-19T06:12:09;20.40;99.90
12872;DHT22;6504;53.766;9.626;2022-08-19T06:14:55;20.40;99.90
12872;DHT22;6504;53.766;9.626;2022-08-19T06:17:41;20.40;99.90
12872;DHT22;6504;53.766;9.626;2022-08-19T06:20:28;20.50;99.90
12872;DHT22;6504;53.766;9.626;2022-08-19T06:23:17;20.50;99.90
12872;DHT22;6504;53.766;9.626;2022-08-19T06:26:04;20.50;99.90
12872;DHT22;6504;53.766;9.626;2022-08-19T06:28:51;20.50;99.90
12872;DHT22;6504;53.766;9.626;2022-08-19T06:31:36;20.40;99.90
12872;DHT22;6504;53.766;9.626;2022-08-19T06:34:23;20.50;99.90
12872;DHT22;6504;53.766;9.626;2022-08-19T06:37:13;20.50;99.90
12872;DHT22;6504;53.766;9.626;2022-08-19T06:39:59;20.50;99.90
12872;DHT22;6504;53.766;9.626;2022-08-19T06:42:45;20.40;99.90
12872;DHT22;6504;53.766;9.626;2022-08-19T06:45:32;20.40;99.90
12872;DHT22;6504;53.766;9.626;2022-08-19T06:48:18;20.40;99.90
12872;DHT22;6504;53.766;9.626;2022-08-19T06:51:06;20.40;99.90
12872;DHT22;6504;53.766;9.626;2022-08-19T06:53:54;20.50;99.90
12872;DHT22;6504;53.766;9.626;2022-08-19T06:56:41;20.50;99.90
12872;DHT22;6504;53.766;9.626;2022-08-19T06:59:28;20.40;99.90
12872;DHT22;6504;53.766;9.626;2022-08-19T07:02:21;20.40;99.90
12872;DHT22;6504;53.766;9.626;2022-08-19T07:05:10;20.50;99.90
12872;DHT22;6504;53.766;9.626;2022-08-19T07:07:55;20.50;99.90
12872;DHT22;6504;53.766;9.626;2022-08-19T07:10:45;20.50;99.90
12872;DHT22;6504;53.766;9.626;2022-08-19T07:13:31;20.50;99.90
12872;DHT22;6504;53.766;9.626;2022-08-19T07:16:19;20.50;99.90
12872;DHT22;6504;53.766;9.626;2022-08-19T07:19:06;20.50;99.90
12872;DHT22;6504;53.766;9.626;2022-08-19T07:21:55;20.50;99.90
12872;DHT22;6504;53.766;9.626;2022-08-19T07:24:41;20.50;99.90
12872;DHT22;6504;53.766;9.626;2022-08-19T07:27:26;20.50;99.90
12872;DHT22;6504;53.766;9.626;2022-08-19T07:30:12;20.50;99.90
12872;DHT22;6504;53.766;9.626;2022-08-19T07:32:58;20.50;99.90
12872;DHT22;6504;53.766;9.626;2022-08-19T07:35:49;20.50;99.90
12872;DHT22;6504;53.766;9.626;2022-08-19T07:38:35;20.60;99.90
12872;DHT22;6504;53.766;9.626;2022-08-19T07:41:23;20.50;99.90
12872;DHT22;6504;53.766;9.626;2022-08-19T07:44:10;20.60;99.90
12872;DHT22;6504;53.766;9.626;2022-08-19T07:47:00;20.60;99.90
12872;DHT22;6504;53.766;9.626;2022-08-19T07:49:46;20.60;99.90
12872;DHT22;6504;53.766;9.626;2022-08-19T07:52:33;20.60;99.90
12872;DHT22;6504;53.766;9.626;2022-08-19T07:55:25;20.60;99.90
12872;DHT22;6504;53.766;9.626;2022-08-19T07:58:16;20.70;99.90
12872;DHT22;6504;53.766;9.626;2022-08-19T08:01:04;20.70;99.90
12872;DHT22;6504;53.766;9.626;2022-08-19T08:03:51;20.60;99.90
12872;DHT22;6504;53.766;9.626;2022-08-19T08:06:55;20.60;99.90
12872;DHT22;6504;53.766;9.626;2022-08-19T08:10:00;20.60;99.90
12872;DHT22;6504;53.766;9.626;2022-08-19T08:12:46;20.70;99.90
12872;DHT22;6504;53.766;9.626;2022-08-19T08:15:32;20.70;99.90
12872;DHT22;6504;53.766;9.626;2022-08-19T08:18:18;20.70;99.90
12872;DHT22;6504;53.766;9.626;2022-08-19T08:21:04;20.60;99.90
12872;DHT22;6504;53.766;9.626;2022-08-19T08:23:50;20.60;99.90
12872;DHT22;6504;53.766;9.626;2022-08-19T08:26:41;20.70;99.90
12872;DHT22;6504;53.766;9.626;2022-08-19T08:29:29;20.70;99.90
12872;DHT22;6504;53.766;9.626;2022-08-19T08:32:15;20.60;99.90
12872;DHT22;6504;53.766;9.626;2022-08-19T08:35:01;20.60;99.90
12872;DHT22;6504;53.766;9.626;2022-08-19T08:37:48;20.50;99.90
12872;DHT22;6504;53.766;9.626;2022-08-19T08:40:43;20.60;99.90
12872;DHT22;6504;53.766;9.626;2022-08-19T08:43:35;20.50;99.90
12872;DHT22;6504;53.766;9.626;2022-08-19T08:46:26;20.50;99.90
12872;DHT22;6504;53.766;9.626;2022-08-19T08:49:23;20.50;99.90
12872;DHT22;6504;53.766;9.626;2022-08-19T08:52:15;20.50;99.90
12872;DHT22;6504;53.766;9.626;2022-08-19T08:55:07;20.50;99.90
12872;DHT22;6504;53.766;9.626;2022-08-19T08:57:59;20.50;99.90
12872;DHT22;6504;53.766;9.626;2022-08-19T09:00:49;20.40;99.90
12872;DHT22;6504;53.766;9.626;2022-08-19T09:03:37;20.40;99.90
12872;DHT22;6504;53.766;9.626;2022-08-19T09:06:29;20.40;99.90
12872;DHT22;6504;53.766;9.626;2022-08-19T09:09:26;20.40;99.90
12872;DHT22;6504;53.766;9.626;2022-08-19T09:12:25;20.40;99.90
12872;DHT22;6504;53.766;9.626;2022-08-19T09:15:24;20.40;99.90
12872;DHT22;6504;53.766;9.626;2022-08-19T09:18:12;20.40;99.90
12872;DHT22;6504;53.766;9.626;2022-08-19T09:20:58;20.40;99.90
12872;DHT22;6504;53.766;9.626;2022-08-19T09:23:49;20.40;99.90
12872;DHT22;6504;53.766;9.626;2022-08-19T09:26:35;20.40;99.90
12872;DHT22;6504;53.766;9.626;2022-08-19T09:29:21;20.50;99.90
12872;DHT22;6504;53.766;9.626;2022-08-19T09:32:07;20.50;99.90
12872;DHT22;6504;53.766;9.626;2022-08-19T09:34:53;20.50;99.90
12872;DHT22;6504;53.766;9.626;2022-08-19T09:37:45;20.50;99.90
12872;DHT22;6504;53.766;9.626;2022-08-19T09:40:31;20.50;99.90
12872;DHT22;6504;53.766;9.626;2022-08-19T09:43:17;20.60;99.90
12872;DHT22;6504;53.766;9.626;2022-08-19T09:46:03;20.60;99.90
12872;DHT22;6504;53.766;9.626;2022-08-19T09:48:51;20.60;99.90
12872;DHT22;6504;53.766;9.626;2022-08-19T09:51:41;20.60;99.90
12872;DHT22;6504;53.766;9.626;2022-08-19T09:54:27;20.70;99.90
12872;DHT22;6504;53.766;9.626;2022-08-19T09:57:13;20.70;99.90
12872;DHT22;6504;53.766;9.626;2022-08-19T09:59:59;20.70;99.90
12872;DHT22;6504;53.766;9.626;2022-08-19T10:02:44;20.70;99.90
12872;DHT22;6504;53.766;9.626;2022-08-19T10:05:30;20.80;99.90
12872;DHT22;6504;53.766;9.626;2022-08-19T10:08:39;20.90;99.90
12872;DHT22;6504;53.766;9.626;2022-08-19T10:11:25;20.90;99.90
12872;DHT22;6504;53.766;9.626;2022-08-19T10:14:12;20.90;99.90
12872;DHT22;6504;53.766;9.626;2022-08-19T10:16:57;21.00;99.90
12872;DHT22;6504;53.766;9.626;2022-08-19T10:19:47;21.10;99.90
12872;DHT22;6504;53.766;9.626;2022-08-19T10:22:33;21.10;99.90
12872;DHT22;6504;53.766;9.626;2022-08-19T10:25:21;21.10;99.90
12872;DHT22;6504;53.766;9.626;2022-08-19T10:28:08;21.20;99.90
12872;DHT22;6504;53.766;9.626;2022-08-19T10:30:55;21.20;99.90
12872;DHT22;6504;53.766;9.626;2022-08-19T10:33:41;21.30;99.90
12872;DHT22;6504;53.766;9.626;2022-08-19T10:36:34;21.30;99.90
12872;DHT22;6504;53.766;9.626;2022-08-19T10:39:21;21.40;99.90
12872;DHT22;6504;53.766;9.626;2022-08-19T10:42:08;21.50;99.90
12872;DHT22;6504;53.766;9.626;2022-08-19T10:44:54;21.60;99.90
12872;DHT22;6504;53.766;9.626;2022-08-19T10:47:40;21.60;99.90
12872;DHT22;6504;53.766;9.626;2022-08-19T10:50:25;21.70;99.90
12872;DHT22;6504;53.766;9.626;2022-08-19T10:53:37;21.80;99.90
12872;DHT22;6504;53.766;9.626;2022-08-19T10:56:22;21.90;99.90
12872;DHT22;6504;53.766;9.626;2022-08-19T10:59:29;21.90;99.90
12872;DHT22;6504;53.766;9.626;2022-08-19T11:02:15;22.00;99.90
12872;DHT22;6504;53.766;9.626;2022-08-19T11:05:00;22.00;99.90
12872;DHT22;6504;53.766;9.626;2022-08-19T11:07:46;22.10;99.90
12872;DHT22;6504;53.766;9.626;2022-08-19T11:10:34;22.10;99.90
12872;DHT22;6504;53.766;9.626;2022-08-19T11:13:20;22.10;99.90
12872;DHT22;6504;53.766;9.626;2022-08-19T11:16:13;22.10;99.90
12872;DHT22;6504;53.766;9.626;2022-08-19T11:19:00;22.10;99.90
12872;DHT22;6504;53.766;9.626;2022-08-19T11:21:48;22.20;99.90
12872;DHT22;6504;53.766;9.626;2022-08-19T11:24:33;22.20;99.90
12872;DHT22;6504;53.766;9.626;2022-08-19T11:27:22;22.20;99.90
12872;DHT22;6504;53.766;9.626;2022-08-19T11:30:08;22.20;99.90
12872;DHT22;6504;53.766;9.626;2022-08-19T11:32:55;22.20;99.90
12872;DHT22;6504;53.766;9.626;2022-08-19T11:35:41;22.20;99.90
12872;DHT22;6504;53.766;9.626;2022-08-19T11:38:27;22.20;99.90
12872;DHT22;6504;53.766;9.626;2022-08-19T11:41:13;22.20;99.90
12872;DHT22;6504;53.766;9.626;2022-08-19T11:43:59;22.20;99.90
12872;DHT22;6504;53.766;9.626;2022-08-19T11:46:45;22.20;99.90
12872;DHT22;6504;53.766;9.626;2022-08-19T11:49:34;22.30;99.90
12872;DHT22;6504;53.766;9.626;2022-08-19T11:52:20;22.30;99.90
12872;DHT22;6504;53.766;9.626;2022-08-19T11:55:07;22.40;99.90
12872;DHT22;6504;53.766;9.626;2022-08-19T11:57:52;22.50;99.90
12872;DHT22;6504;53.766;9.626;2022-08-19T12:00:39;22.50;99.90
12872;DHT22;6504;53.766;9.626;2022-08-19T12:03:25;22.50;99.90
12872;DHT22;6504;53.766;9.626;2022-08-19T12:06:14;22.60;99.90
12872;DHT22;6504;53.766;9.626;2022-08-19T12:09:04;22.60;99.90
12872;DHT22;6504;53.766;9.626;2022-08-19T12:11:53;22.70;99.90
12872;DHT22;6504;53.766;9.626;2022-08-19T12:14:39;22.70;99.90
12872;DHT22;6504;53.766;9.626;2022-08-19T12:17:28;22.80;99.90
12872;DHT22;6504;53.766;9.626;2022-08-19T12:20:15;22.80;99.90
12872;DHT22;6504;53.766;9.626;2022-08-19T12:23:03;22.90;99.90
12872;DHT22;6504;53.766;9.626;2022-08-19T12:25:49;22.90;99.90
12872;DHT22;6504;53.766;9.626;2022-08-19T12:28:36;23.00;99.90
12872;DHT22;6504;53.766;9.626;2022-08-19T12:31:21;22.90;99.90
12872;DHT22;6504;53.766;9.626;2022-08-19T12:34:07;22.90;99.90
12872;DHT22;6504;53.766;9.626;2022-08-19T12:36:53;22.90;99.90
12872;DHT22;6504;53.766;9.626;2022-08-19T12:39:41;22.90;99.90
12872;DHT22;6504;53.766;9.626;2022-08-19T12:42:30;22.80;99.90
12872;DHT22;6504;53.766;9.626;2022-08-19T12:45:16;22.80;99.90
12872;DHT22;6504;53.766;9.626;2022-08-19T12:48:02;22.80;99.90
12872;DHT22;6504;53.766;9.626;2022-08-19T12:50:48;22.80;99.90
12872;DHT22;6504;53.766;9.626;2022-08-19T12:53:34;22.80;99.90
12872;DHT22;6504;53.766;9.626;2022-08-19T12:56:21;22.80;99.90
12872;DHT22;6504;53.766;9.626;2022-08-19T12:59:07;22.80;99.90
12872;DHT22;6504;53.766;9.626;2022-08-19T13:01:53;22.80;99.90
12872;DHT22;6504;53.766;9.626;2022-08-19T13:04:39;22.70;99.90
12872;DHT22;6504;53.766;9.626;2022-08-19T13:07:25;22.70;99.90
12872;DHT22;6504;53.766;9.626;2022-08-19T13:10:13;22.70;99.90
12872;DHT22;6504;53.766;9.626;2022-08-19T13:13:05;22.70;99.90
12872;DHT22;6504;53.766;9.626;2022-08-19T13:15:51;22.70;99.90
12872;DHT22;6504;53.766;9.626;2022-08-19T13:18:38;22.70;99.90
12872;DHT22;6504;53.766;9.626;2022-08-19T13:21:26;22.80;99.90
12872;DHT22;6504;53.766;9.626;2022-08-19T13:24:14;22.80;99.90
12872;DHT22;6504;53.766;9.626;2022-08-19T13:26:59;22.80;99.90
12872;DHT22;6504;53.766;9.626;2022-08-19T13:29:51;22.90;99.90
12872;DHT22;6504;53.766;9.626;2022-08-19T13:32:54;22.90;99.90
12872;DHT22;6504;53.766;9.626;2022-08-19T13:36:01;22.90;99.90
12872;DHT22;6504;53.766;9.626;2022-08-19T13:38:50;23.00;99.90
12872;DHT22;6504;53.766;9.626;2022-08-19T13:41:37;23.10;99.90
12872;DHT22;6504;53.766;9.626;2022-08-19T13:44:22;23.10;99.90
12872;DHT22;6504;53.766;9.626;2022-08-19T13:47:09;23.20;99.90
12872;DHT22;6504;53.766;9.626;2022-08-19T13:49:56;23.20;99.90
12872;DHT22;6504;53.766;9.626;2022-08-19T13:52:44;23.30;99.90
12872;DHT22;6504;53.766;9.626;2022-08-19T13:55:31;23.30;99.90
12872;DHT22;6504;53.766;9.626;2022-08-19T13:58:18;23.30;99.90
12872;DHT22;6504;53.766;9.626;2022-08-19T14:01:05;23.30;99.90
12872;DHT22;6504;53.766;9.626;2022-08-19T14:03:52;23.30;99.90
12872;DHT22;6504;53.766;9.626;2022-08-19T14:06:38;23.30;99.90
12872;DHT22;6504;53.766;9.626;2022-08-19T14:09:23;23.20;99.90
12872;DHT22;6504;53.766;9.626;2022-08-19T14:12:09;23.30;99.90
12872;DHT22;6504;53.766;9.626;2022-08-19T14:14:55;23.30;99.90
12872;DHT22;6504;53.766;9.626;2022-08-19T14:17:43;23.30;99.90
12872;DHT22;6504;53.766;9.626;2022-08-19T14:20:33;23.30;99.90
12872;DHT22;6504;53.766;9.626;2022-08-19T14:23:19;23.30;99.90
12872;DHT22;6504;53.766;9.626;2022-08-19T14:26:10;23.40;99.90
12872;DHT22;6504;53.766;9.626;2022-08-19T14:28:56;23.40;99.90
12872;DHT22;6504;53.766;9.626;2022-08-19T14:31:42;23.40;99.90
12872;DHT22;6504;53.766;9.626;2022-08-19T14:34:28;23.50;99.90
12872;DHT22;6504;53.766;9.626;2022-08-19T14:37:17;23.50;99.90
12872;DHT22;6504;53.766;9.626;2022-08-19T14:40:04;23.50;99.90
12872;DHT22;6504;53.766;9.626;2022-08-19T14:42:50;23.60;99.90
12872;DHT22;6504;53.766;9.626;2022-08-19T14:45:37;23.60;99.90
12872;DHT22;6504;53.766;9.626;2022-08-19T14:48:26;23.70;99.90
12872;DHT22;6504;53.766;9.626;2022-08-19T14:51:12;23.70;99.90
12872;DHT22;6504;53.766;9.626;2022-08-19T14:54:00;23.70;99.90
12872;DHT22;6504;53.766;9.626;2022-08-19T14:56:46;23.70;99.90
12872;DHT22;6504;53.766;9.626;2022-08-19T14:59:32;23.70;99.90
12872;DHT22;6504;53.766;9.626;2022-08-19T15:02:19;23.70;99.90
12872;DHT22;6504;53.766;9.626;2022-08-19T15:05:06;23.70;99.90
12872;DHT22;6504;53.766;9.626;2022-08-19T15:07:55;23.70;99.90
12872;DHT22;6504;53.766;9.626;2022-08-19T15:10:45;23.70;99.90
12872;DHT22;6504;53.766;9.626;2022-08-19T15:13:31;23.70;99.90
12872;DHT22;6504;53.766;9.626;2022-08-19T15:16:19;23.70;99.90
12872;DHT22;6504;53.766;9.626;2022-08-19T15:19:05;23.70;99.90
12872;DHT22;6504;53.766;9.626;2022-08-19T15:21:51;23.70;99.90
12872;DHT22;6504;53.766;9.626;2022-08-19T15:24:39;23.70;99.90
12872;DHT22;6504;53.766;9.626;2022-08-19T15:27:34;23.70;99.90
12872;DHT22;6504;53.766;9.626;2022-08-19T15:30:22;23.70;99.90
12872;DHT22;6504;53.766;9.626;2022-08-19T15:33:10;23.70;99.90
12872;DHT22;6504;53.766;9.626;2022-08-19T15:36:01;23.60;99.90
12872;DHT22;6504;53.766;9.626;2022-08-19T15:38:49;23.60;99.90
12872;DHT22;6504;53.766;9.626;2022-08-19T15:41:37;23.60;99.90
12872;DHT22;6504;53.766;9.626;2022-08-19T15:44:25;23.60;99.90
12872;DHT22;6504;53.766;9.626;2022-08-19T15:47:11;23.70;99.90
12872;DHT22;6504;53.766;9.626;2022-08-19T15:49:57;23.70;99.90
12872;DHT22;6504;53.766;9.626;2022-08-19T15:52:48;23.70;99.90
12872;DHT22;6504;53.766;9.626;2022-08-19T15:55:41;23.70;99.90
12872;DHT22;6504;53.766;9.626;2022-08-19T15:58:26;23.80;99.90
12872;DHT22;6504;53.766;9.626;2022-08-19T16:01:31;23.80;99.90
12872;DHT22;6504;53.766;9.626;2022-08-19T16:04:35;23.80;99.90
12872;DHT22;6504;53.766;9.626;2022-08-19T16:07:38;23.80;99.90
12872;DHT22;6504;53.766;9.626;2022-08-19T16:10:25;23.80;99.90
12872;DHT22;6504;53.766;9.626;2022-08-19T16:13:11;23.80;99.90
12872;DHT22;6504;53.766;9.626;2022-08-19T16:16:01;23.80;99.90
12872;DHT22;6504;53.766;9.626;2022-08-19T16:18:48;23.90;99.90
12872;DHT22;6504;53.766;9.626;2022-08-19T16:21:36;23.80;99.90
12872;DHT22;6504;53.766;9.626;2022-08-19T16:24:25;23.90;99.90
12872;DHT22;6504;53.766;9.626;2022-08-19T16:27:10;23.90;99.90
12872;DHT22;6504;53.766;9.626;2022-08-19T16:29:56;23.90;99.90
12872;DHT22;6504;53.766;9.626;2022-08-19T16:32:42;23.90;99.90
12872;DHT22;6504;53.766;9.626;2022-08-19T16:35:32;24.00;99.90
12872;DHT22;6504;53.766;9.626;2022-08-19T16:38:18;24.00;99.90
12872;DHT22;6504;53.766;9.626;2022-08-19T16:41:05;24.00;99.90
12872;DHT22;6504;53.766;9.626;2022-08-19T16:43:51;24.10;99.90
12872;DHT22;6504;53.766;9.626;2022-08-19T16:46:37;24.10;99.90
12872;DHT22;6504;53.766;9.626;2022-08-19T16:49:24;24.10;99.90
12872;DHT22;6504;53.766;9.626;2022-08-19T16:52:14;24.20;99.90
12872;DHT22;6504;53.766;9.626;2022-08-19T16:54:59;24.20;99.90
12872;DHT22;6504;53.766;9.626;2022-08-19T16:57:45;24.20;99.90
12872;DHT22;6504;53.766;9.626;2022-08-19T17:00:31;24.20;99.90
12872;DHT22;6504;53.766;9.626;2022-08-19T17:03:17;24.20;99.90
12872;DHT22;6504;53.766;9.626;2022-08-19T17:06:14;24.30;99.90
12872;DHT22;6504;53.766;9.626;2022-08-19T17:09:02;24.30;99.90
12872;DHT22;6504;53.766;9.626;2022-08-19T17:11:49;24.20;99.90
12872;DHT22;6504;53.766;9.626;2022-08-19T17:14:35;24.20;99.90
12872;DHT22;6504;53.766;9.626;2022-08-19T17:17:21;24.20;99.90
12872;DHT22;6504;53.766;9.626;2022-08-19T17:20:07;24.20;99.90
12872;DHT22;6504;53.766;9.626;2022-08-19T17:22:57;24.30;99.90
12872;DHT22;6504;53.766;9.626;2022-08-19T17:25:44;24.30;99.90
12872;DHT22;6504;53.766;9.626;2022-08-19T17:28:29;24.20;99.90
12872;DHT22;6504;53.766;9.626;2022-08-19T17:31:15;24.20;99.90